Time;durP1;ratioP1;P1;durP2;ratioP2;P2;SDS_P1;SDS_P2;PMS_P1;PMS_P2;Temp;Humidity;BMP_temperature;BMP_pressure;BME280_temperature;BME280_humidity;BME280_pressure;Samples;Min_cycle;Max_cycle;Signal;HPM_P1;HPM_P2
2022/01/17 00:02:18;;;;;;;16.92;2.78;;;5.20;99.90;;;;;;5010950;28;20137;-51
2022/01/17 00:04:44;;;;;;;15.63;3.13;;;5.20;99.90;;;;;;5010790;28;20018;-54
2022/01/17 00:07:10;;;;;;;15.55;3.00;;;5.20;99.90;;;;;;5011607;28;20512;-55
2022/01/17 00:09:36;;;;;;;15.90;3.40;;;5.20;99.90;;;;;;5011265;28;20040;-55
2022/01/17 00:12:02;;;;;;;19.55;3.35;;;5.20;99.90;;;;;;5010907;28;20076;-52
2022/01/17 00:14:33;;;;;;;11.40;2.38;;;5.20;99.90;;;;;;5010498;28;20081;-52
2022/01/17 00:17:37;;;;;;;8.20;2.78;;;5.20;99.90;;;;;;5011660;28;20413;-51
2022/01/17 00:19:55;;;;;;;13.45;3.35;;;5.20;99.90;;;;;;5007934;28;20042;-56
2022/01/17 00:22:22;;;;;;;11.35;2.75;;;5.30;99.90;;;;;;5011038;28;20076;-58
2022/01/17 00:24:49;;;;;;;13.32;2.97;;;5.20;99.90;;;;;;5010543;28;20029;-52
2022/01/17 00:27:15;;;;;;;12.20;2.55;;;5.30;99.90;;;;;;5009327;28;20021;-56
2022/01/17 00:29:40;;;;;;;21.17;3.08;;;5.30;99.90;;;;;;5006535;28;20062;-55
2022/01/17 00:32:06;;;;;;;14.35;2.70;;;5.30;99.90;;;;;;5005735;28;20057;-50
2022/01/17 00:34:32;;;;;;;13.18;3.03;;;5.30;99.90;;;;;;5006061;28;20081;-56
2022/01/17 00:36:58;;;;;;;11.95;2.70;;;5.30;99.90;;;;;;5005974;28;20022;-54
2022/01/17 00:39:25;;;;;;;17.65;3.22;;;5.30;99.90;;;;;;5007400;28;20132;-58
2022/01/17 00:41:51;;;;;;;12.80;2.67;;;5.40;99.90;;;;;;5007687;28;20475;-56
2022/01/17 00:44:21;;;;;;;9.93;2.08;;;5.40;99.90;;;;;;4991236;28;20030;-54
2022/01/17 00:46:48;;;;;;;10.13;3.00;;;5.40;99.90;;;;;;5010246;28;20069;-55
2022/01/17 00:49:14;;;;;;;13.93;1.85;;;5.40;99.90;;;;;;5009923;28;20109;-56
2022/01/17 00:51:39;;;;;;;7.00;2.03;;;5.40;99.90;;;;;;5009806;28;20113;-55
2022/01/17 00:54:05;;;;;;;12.23;2.20;;;5.40;99.90;;;;;;4992531;28;20120;-54
2022/01/17 00:56:30;;;;;;;7.75;2.22;;;5.40;99.90;;;;;;5010286;28;20057;-52
2022/01/17 00:58:56;;;;;;;15.07;2.70;;;5.50;99.90;;;;;;5010068;28;20096;-57
2022/01/17 01:01:22;;;;;;;8.63;2.72;;;5.50;99.90;;;;;;5010953;28;20488;-54
2022/01/17 01:03:47;;;;;;;13.00;2.60;;;5.50;99.90;;;;;;5010212;28;20033;-54
2022/01/17 01:06:13;;;;;;;12.25;3.55;;;5.50;99.90;;;;;;5009435;28;20026;-50
2022/01/17 01:08:39;;;;;;;11.95;2.55;;;5.50;99.90;;;;;;5010017;28;20025;-55
2022/01/17 01:11:05;;;;;;;19.40;2.70;;;5.50;99.90;;;;;;5010626;28;20033;-52
2022/01/17 01:13:31;;;;;;;16.33;3.45;;;5.50;99.90;;;;;;4992924;28;20139;-58
2022/01/17 01:29:02;;;;;;;11.85;3.17;;;5.60;99.90;;;;;;5010075;28;20029;-53
2022/01/17 01:31:42;;;;;;;17.08;3.03;;;5.60;99.90;;;;;;5009615;28;20420;-56
2022/01/17 01:34:08;;;;;;;20.55;3.08;;;5.70;99.90;;;;;;5009875;28;20404;-51
2022/01/17 01:36:35;;;;;;;11.20;2.05;;;5.70;99.90;;;;;;5009245;28;20029;-51
2022/01/17 01:39:01;;;;;;;12.50;3.47;;;5.70;99.90;;;;;;5006513;28;20532;-54
2022/01/17 01:41:26;;;;;;;15.70;2.42;;;5.80;99.90;;;;;;5009682;28;20161;-54
2022/01/17 01:43:52;;;;;;;14.50;2.80;;;5.80;99.90;;;;;;5009304;28;20108;-51
2022/01/17 01:46:19;;;;;;;27.30;4.30;;;5.80;99.90;;;;;;4991783;28;20440;-58
2022/01/17 01:48:45;;;;;;;15.48;3.88;;;5.80;99.90;;;;;;5009289;28;20056;-55
2022/01/17 01:51:11;;;;;;;15.43;2.90;;;5.80;99.90;;;;;;5009962;28;20053;-52
2022/01/17 01:53:37;;;;;;;11.82;2.85;;;5.80;99.90;;;;;;5009610;28;20113;-55
2022/01/17 01:56:04;;;;;;;21.63;3.13;;;5.90;99.90;;;;;;5009153;28;20034;-53
2022/01/17 01:58:29;;;;;;;16.02;3.53;;;5.90;99.90;;;;;;5007265;28;20038;-54
2022/01/17 02:00:55;;;;;;;18.13;3.35;;;5.90;99.90;;;;;;5006710;28;20052;-53
2022/01/17 02:03:22;;;;;;;18.90;2.85;;;5.90;99.90;;;;;;5006334;28;20029;-54
2022/01/17 02:05:48;;;;;;;11.95;2.63;;;5.90;99.90;;;;;;5009091;28;20575;-55
2022/01/17 02:08:15;;;;;;;13.25;2.72;;;5.90;99.90;;;;;;5008788;28;20030;-58
2022/01/17 02:10:41;;;;;;;13.80;4.18;;;5.90;99.90;;;;;;5008830;28;20201;-51
2022/01/17 02:13:07;;;;;;;12.82;2.78;;;5.90;99.90;;;;;;5008913;28;20091;-54
2022/01/17 02:15:33;;;;;;;20.30;2.60;;;5.90;99.90;;;;;;5008530;28;20125;-56
2022/01/17 02:17:58;;;;;;;12.10;2.58;;;6.00;99.90;;;;;;5008949;28;20103;-54
2022/01/17 02:20:41;;;;;;;15.68;3.67;;;6.00;99.90;;;;;;4991347;28;20041;-53
2022/01/17 02:23:08;;;;;;;12.77;2.65;;;6.00;99.90;;;;;;5007981;28;20038;-54
2022/01/17 02:25:34;;;;;;;19.98;4.03;;;6.10;99.90;;;;;;5009024;28;20104;-55
2022/01/17 02:28:00;;;;;;;17.48;3.15;;;6.10;99.90;;;;;;5008744;28;20022;-54
2022/01/17 02:30:27;;;;;;;18.80;3.05;;;6.10;99.90;;;;;;5008865;28;20113;-52
2022/01/17 02:32:53;;;;;;;14.90;2.83;;;6.00;99.90;;;;;;5008477;28;20117;-55
2022/01/17 02:35:21;;;;;;;11.82;2.85;;;6.00;99.90;;;;;;5008807;28;20164;-57
2022/01/17 02:37:47;;;;;;;16.00;2.75;;;6.00;99.90;;;;;;5006416;28;20168;-58
2022/01/17 02:40:16;;;;;;;18.33;3.90;;;6.00;99.90;;;;;;4991224;28;20369;-57
2022/01/17 02:42:43;;;;;;;14.55;3.45;;;6.00;99.90;;;;;;5008619;28;20052;-58
2022/01/17 02:45:20;;;;;;;11.35;2.72;;;6.00;99.90;;;;;;5008488;28;20038;-56
2022/01/17 02:47:46;;;;;;;19.67;3.83;;;6.10;99.90;;;;;;5008443;28;20030;-55
2022/01/17 02:50:12;;;;;;;10.90;3.33;;;6.10;99.90;;;;;;5007756;28;20029;-54
2022/01/17 02:52:37;;;;;;;17.08;3.00;;;6.10;99.90;;;;;;5008353;28;20034;-55
2022/01/17 02:55:04;;;;;;;11.82;3.33;;;6.10;99.90;;;;;;5008898;28;20930;-52
2022/01/17 02:57:33;;;;;;;8.70;2.35;;;6.10;99.90;;;;;;5007938;28;20033;-59
2022/01/17 02:59:59;;;;;;;10.85;3.00;;;6.10;99.90;;;;;;5008084;28;20488;-52
2022/01/17 03:02:25;;;;;;;12.82;2.60;;;6.10;99.90;;;;;;5007585;28;20026;-56
2022/01/17 03:04:50;;;;;;;15.15;2.92;;;6.10;99.90;;;;;;4990582;28;20040;-53
2022/01/17 03:07:16;;;;;;;9.48;2.70;;;6.10;99.90;;;;;;5008713;28;20088;-56
2022/01/17 03:09:55;;;;;;;15.95;3.65;;;6.10;99.90;;;;;;5008980;28;20097;-55
2022/01/17 03:12:21;;;;;;;8.90;2.92;;;6.10;99.90;;;;;;5007999;28;20088;-57
2022/01/17 03:14:46;;;;;;;9.25;2.47;;;6.10;99.90;;;;;;5008982;28;20026;-57
2022/01/17 03:17:12;;;;;;;11.25;2.92;;;6.10;99.90;;;;;;5012892;28;20030;-58
2022/01/17 03:19:37;;;;;;;12.07;2.95;;;6.10;99.90;;;;;;5012283;28;20034;-55
2022/01/17 03:22:03;;;;;;;12.32;3.13;;;6.20;99.90;;;;;;5011721;28;20029;-56
2022/01/17 03:24:29;;;;;;;14.60;2.38;;;6.10;99.90;;;;;;5012389;28;20034;-54
2022/01/17 03:26:54;;;;;;;13.20;3.00;;;6.10;99.90;;;;;;5012470;28;20018;-54
2022/01/17 03:29:20;;;;;;;10.88;2.90;;;6.10;99.90;;;;;;5012418;28;20025;-54
2022/01/17 03:31:45;;;;;;;15.40;2.88;;;6.10;99.90;;;;;;5012129;28;20559;-55
2022/01/17 03:34:11;;;;;;;17.45;2.83;;;6.10;99.90;;;;;;5012494;28;20378;-59
2022/01/17 03:36:37;;;;;;;12.65;2.60;;;6.20;99.90;;;;;;5012259;28;20029;-56
2022/01/17 03:39:03;;;;;;;16.70;2.80;;;6.20;99.90;;;;;;5012248;28;20503;-56
2022/01/17 03:41:28;;;;;;;15.95;3.28;;;6.20;99.90;;;;;;5010504;28;20531;-57
2022/01/17 03:43:54;;;;;;;12.48;2.80;;;6.20;99.90;;;;;;5011918;28;20340;-54
2022/01/17 03:46:20;;;;;;;11.88;2.72;;;6.20;99.90;;;;;;5012152;28;20026;-55
2022/01/17 03:48:45;;;;;;;19.88;4.35;;;6.20;99.90;;;;;;5012293;28;20026;-57
2022/01/17 03:51:11;;;;;;;14.85;3.20;;;6.20;99.90;;;;;;5011899;28;20083;-55
2022/01/17 03:53:37;;;;;;;9.52;3.25;;;6.20;99.90;;;;;;5011764;28;20038;-55
2022/01/17 03:56:02;;;;;;;15.77;3.15;;;6.30;99.90;;;;;;5011711;28;20033;-51
2022/01/17 03:58:28;;;;;;;16.85;3.75;;;6.20;99.90;;;;;;5012469;28;20049;-57
2022/01/17 04:00:56;;;;;;;16.85;2.47;;;6.20;99.90;;;;;;5011755;28;20500;-57
2022/01/17 04:03:23;;;;;;;15.70;3.38;;;6.20;99.90;;;;;;4993363;28;20022;-56
2022/01/17 04:05:48;;;;;;;14.05;3.50;;;6.20;99.90;;;;;;5011861;28;20396;-55
2022/01/17 04:08:14;;;;;;;12.40;2.92;;;6.20;99.90;;;;;;5011586;28;20033;-58
2022/01/17 04:10:40;;;;;;;9.50;3.03;;;6.20;99.90;;;;;;5011540;28;20365;-56
2022/01/17 04:13:08;;;;;;;13.13;3.70;;;6.20;99.90;;;;;;5011300;28;20034;-58
2022/01/17 04:15:35;;;;;;;16.25;2.95;;;6.20;99.90;;;;;;5009947;28;20286;-50
2022/01/17 04:18:03;;;;;;;13.52;2.65;;;6.30;99.90;;;;;;5011232;28;20022;-56
2022/01/17 04:20:29;;;;;;;17.00;3.25;;;6.30;99.90;;;;;;5010841;28;20033;-54
2022/01/17 04:23:06;;;;;;;13.82;3.55;;;6.20;99.90;;;;;;5011298;28;20028;-55
2022/01/17 04:25:35;;;;;;;18.60;3.55;;;6.30;99.90;;;;;;5011010;28;20026;-57
2022/01/17 04:28:02;;;;;;;14.20;3.25;;;6.30;99.90;;;;;;5011550;28;20401;-52
2022/01/17 04:30:28;;;;;;;10.57;2.83;;;6.30;99.90;;;;;;5011089;28;20061;-51
2022/01/17 04:32:55;;;;;;;12.35;3.20;;;6.30;99.90;;;;;;4992639;28;20026;-54
2022/01/17 04:35:22;;;;;;;15.57;3.47;;;6.30;99.90;;;;;;5010331;28;20025;-58
2022/01/17 04:38:06;;;;;;;15.23;3.28;;;6.30;99.90;;;;;;5011075;28;20061;-57
2022/01/17 04:40:37;;;;;;;17.00;3.47;;;6.40;99.90;;;;;;4992875;28;20026;-56
2022/01/17 04:43:06;;;;;;;15.93;3.15;;;6.40;99.90;;;;;;5010483;28;20029;-53
2022/01/17 04:45:32;;;;;;;12.70;3.67;;;6.40;99.90;;;;;;4992417;28;20439;-50
2022/01/17 04:47:58;;;;;;;15.30;3.25;;;6.50;99.90;;;;;;5010953;28;20181;-54
2022/01/17 04:50:26;;;;;;;13.38;3.45;;;6.60;99.90;;;;;;5010851;28;20022;-49
2022/01/17 04:52:57;;;;;;;13.93;3.60;;;6.60;99.90;;;;;;5010434;28;20129;-51
2022/01/17 04:55:24;;;;;;;17.45;3.70;;;6.60;99.90;;;;;;5010119;28;20025;-52
2022/01/17 04:57:50;;;;;;;21.88;4.75;;;6.60;99.90;;;;;;5010522;28;20026;-55
2022/01/17 05:00:18;;;;;;;16.45;3.22;;;6.60;99.90;;;;;;4992888;28;20033;-58
2022/01/17 05:02:45;;;;;;;23.15;4.20;;;6.60;99.90;;;;;;5010189;28;20488;-55
2022/01/17 05:05:12;;;;;;;13.48;3.53;;;6.60;99.90;;;;;;5010855;28;20022;-56
2022/01/17 05:07:38;;;;;;;12.65;3.58;;;6.50;99.90;;;;;;5010453;28;20034;-54
2022/01/17 05:10:12;;;;;;;13.00;3.17;;;6.50;99.90;;;;;;5010393;28;20022;-55
2022/01/17 05:12:37;;;;;;;18.80;3.95;;;6.60;99.90;;;;;;5009783;28;20045;-51
2022/01/17 05:15:06;;;;;;;21.85;4.53;;;6.60;99.90;;;;;;5009334;28;20037;-54
2022/01/17 05:19:58;;;;;;;17.42;3.40;;;6.50;99.90;;;;;;5010353;28;20117;-54
2022/01/17 05:22:31;;;;;;;12.27;3.15;;;6.60;99.90;;;;;;5009302;28;20030;-53
2022/01/17 05:24:57;;;;;;;17.48;3.88;;;6.60;99.90;;;;;;5009920;28;20026;-57
2022/01/17 05:27:23;;;;;;;16.27;3.47;;;6.70;99.90;;;;;;5010073;28;20132;-57
2022/01/17 05:29:48;;;;;;;15.25;4.35;;;6.60;99.90;;;;;;5010079;28;20032;-55
2022/01/17 05:32:14;;;;;;;17.20;4.13;;;6.60;99.90;;;;;;4992085;28;20042;-51
2022/01/17 05:34:41;;;;;;;20.77;3.30;;;6.70;99.90;;;;;;5009719;28;20033;-57
2022/01/17 05:37:08;;;;;;;21.40;4.45;;;6.70;99.90;;;;;;5008797;28;20411;-55
2022/01/17 05:39:35;;;;;;;16.80;2.50;;;6.70;99.90;;;;;;5009761;28;20578;-52
2022/01/17 05:42:01;;;;;;;17.92;4.65;;;6.70;99.90;;;;;;5008595;28;20053;-57
2022/01/17 05:44:26;;;;;;;18.50;3.92;;;6.60;99.90;;;;;;5009363;28;20046;-53
2022/01/17 05:46:52;;;;;;;20.42;4.30;;;6.70;99.90;;;;;;5009538;28;20046;-56
2022/01/17 05:49:18;;;;;;;15.93;3.00;;;6.70;99.90;;;;;;5009580;28;20030;-58
2022/01/17 05:51:43;;;;;;;24.95;4.82;;;6.70;99.90;;;;;;5010261;28;20354;-55
2022/01/17 05:54:09;;;;;;;20.20;4.32;;;6.70;99.90;;;;;;5009704;28;20408;-58
2022/01/17 05:56:34;;;;;;;20.38;3.85;;;6.70;99.90;;;;;;5009629;28;20065;-52
2022/01/17 05:59:00;;;;;;;15.38;3.58;;;6.80;99.90;;;;;;5009610;28;20037;-55
2022/01/17 06:01:25;;;;;;;13.25;3.30;;;6.80;99.90;;;;;;5009299;28;20473;-52
2022/01/17 06:03:51;;;;;;;17.70;4.10;;;6.80;99.90;;;;;;5009267;28;20029;-52
2022/01/17 06:06:17;;;;;;;14.35;3.50;;;6.80;99.90;;;;;;5009526;28;20431;-56
2022/01/17 06:08:43;;;;;;;15.15;3.20;;;6.80;99.90;;;;;;4991611;28;20030;-54
2022/01/17 06:11:09;;;;;;;21.00;4.57;;;6.80;99.90;;;;;;5009277;28;20109;-53
2022/01/17 06:13:34;;;;;;;18.10;4.10;;;6.80;99.90;;;;;;5008806;28;20504;-54
2022/01/17 06:16:00;;;;;;;25.45;3.92;;;6.90;99.90;;;;;;5009115;28;20129;-55
2022/01/17 06:18:26;;;;;;;20.45;4.50;;;6.80;99.90;;;;;;5009318;28;20042;-56
2022/01/17 06:20:51;;;;;;;26.17;5.10;;;6.90;99.90;;;;;;5009126;28;20083;-56
2022/01/17 06:23:17;;;;;;;13.95;4.35;;;6.90;99.90;;;;;;4991325;28;20051;-52
2022/01/17 06:25:42;;;;;;;25.17;4.40;;;6.90;99.90;;;;;;5009277;28;20057;-51
2022/01/17 06:28:08;;;;;;;16.80;3.10;;;6.90;99.90;;;;;;5009321;28;20060;-54
2022/01/17 06:30:34;;;;;;;20.42;4.90;;;6.80;99.90;;;;;;5009057;28;20040;-50
2022/01/17 06:32:59;;;;;;;21.58;3.97;;;6.80;99.90;;;;;;5008982;28;20084;-55
2022/01/17 06:35:25;;;;;;;18.70;5.20;;;6.70;99.90;;;;;;5009057;28;20084;-57
2022/01/17 06:37:51;;;;;;;22.63;4.38;;;6.70;99.90;;;;;;5008967;28;20029;-51
2022/01/17 06:40:18;;;;;;;17.75;4.43;;;6.70;99.90;;;;;;5009166;28;20383;-53
2022/01/17 06:42:44;;;;;;;26.35;5.28;;;6.60;99.90;;;;;;5008311;28;20092;-56
2022/01/17 06:45:11;;;;;;;26.90;4.82;;;6.60;99.90;;;;;;5008600;28;20469;-56
2022/01/17 06:47:37;;;;;;;20.25;5.60;;;6.60;99.90;;;;;;4991083;28;20025;-55
2022/01/17 06:50:06;;;;;;;17.30;4.60;;;6.60;99.90;;;;;;5008852;28;20045;-57
2022/01/17 06:52:32;;;;;;;27.05;4.53;;;6.60;99.90;;;;;;5008484;28;20076;-55
2022/01/17 06:54:58;;;;;;;25.75;5.35;;;6.60;99.90;;;;;;5008901;28;20057;-53
2022/01/17 06:57:24;;;;;;;24.63;5.53;;;6.50;99.90;;;;;;5008759;28;20480;-54
2022/01/17 06:59:50;;;;;;;26.10;5.63;;;6.60;99.90;;;;;;5008363;28;20084;-55
2022/01/17 07:02:16;;;;;;;18.85;5.25;;;6.50;99.90;;;;;;5008373;28;20042;-54
2022/01/17 07:04:42;;;;;;;24.65;4.22;;;6.50;99.90;;;;;;5008922;28;20111;-54
2022/01/17 07:07:08;;;;;;;23.00;5.22;;;6.60;99.90;;;;;;5009275;28;20480;-57
2022/01/17 07:09:36;;;;;;;21.13;5.63;;;6.60;99.90;;;;;;5008563;28;20026;-54
2022/01/17 07:12:02;;;;;;;24.40;4.68;;;6.60;99.90;;;;;;5007777;28;20337;-56
2022/01/17 07:14:28;;;;;;;26.58;5.93;;;6.50;99.90;;;;;;4990965;28;20034;-57
2022/01/17 07:16:54;;;;;;;32.67;5.93;;;6.50;99.90;;;;;;5008782;28;20084;-55
2022/01/17 07:19:19;;;;;;;27.90;5.57;;;6.50;99.90;;;;;;5008461;28;20029;-56
2022/01/17 07:21:45;;;;;;;22.60;5.97;;;6.50;99.90;;;;;;5008566;28;20034;-55
2022/01/17 07:24:11;;;;;;;17.23;5.07;;;6.40;99.90;;;;;;5006810;28;20030;-56
2022/01/17 07:26:36;;;;;;;27.15;6.25;;;6.50;99.90;;;;;;4990760;28;20034;-54
2022/01/17 07:29:05;;;;;;;31.42;6.55;;;6.50;99.90;;;;;;5008786;28;20042;-54
2022/01/17 07:31:32;;;;;;;38.90;6.97;;;6.50;99.90;;;;;;5008540;28;20037;-54
2022/01/17 07:33:57;;;;;;;27.42;6.20;;;6.50;99.90;;;;;;5008298;28;20029;-54
2022/01/17 07:36:23;;;;;;;17.40;4.75;;;6.60;99.90;;;;;;5007676;28;20382;-51
2022/01/17 07:38:49;;;;;;;33.83;5.97;;;6.60;99.90;;;;;;5007750;28;20037;-54
2022/01/17 07:41:15;;;;;;;23.30;6.53;;;6.60;99.90;;;;;;4990550;28;20400;-54
2022/01/17 07:43:42;;;;;;;24.98;5.75;;;6.50;99.90;;;;;;5008432;28;20476;-56
2022/01/17 07:46:18;;;;;;;25.63;4.45;;;6.50;99.90;;;;;;5008579;28;20084;-57
2022/01/17 07:48:57;;;;;;;25.67;6.85;;;6.50;99.90;;;;;;5008665;28;20109;-56
2022/01/17 07:51:24;;;;;;;17.02;4.45;;;6.60;99.90;;;;;;5008282;28;20022;-58
2022/01/17 07:53:50;;;;;;;23.95;5.47;;;6.60;99.90;;;;;;5007705;28;20553;-53
2022/01/17 07:56:16;;;;;;;16.92;4.18;;;6.60;99.90;;;;;;4974273;28;20026;-55
2022/01/17 07:58:42;;;;;;;19.20;4.65;;;6.70;99.90;;;;;;5008405;28;20507;-56
2022/01/17 08:01:08;;;;;;;17.25;4.03;;;6.70;99.90;;;;;;5009043;28;20556;-54
2022/01/17 08:03:34;;;;;;;17.85;4.65;;;6.70;99.90;;;;;;4992458;28;20030;-56
2022/01/17 08:06:00;;;;;;;21.98;4.75;;;6.70;99.90;;;;;;5011652;28;20028;-56
2022/01/17 08:08:26;;;;;;;18.50;4.40;;;6.70;99.90;;;;;;5010493;28;20022;-54
2022/01/17 08:10:52;;;;;;;18.58;5.07;;;6.80;99.90;;;;;;5011970;28;20600;-54
2022/01/17 08:13:18;;;;;;;16.13;3.40;;;6.80;99.90;;;;;;5011191;28;20080;-56
2022/01/17 08:15:47;;;;;;;19.88;4.40;;;6.80;99.90;;;;;;5009549;28;20025;-54
2022/01/17 08:18:14;;;;;;;18.30;4.80;;;6.80;99.90;;;;;;5008777;28;20492;-55
2022/01/17 08:20:41;;;;;;;18.48;3.83;;;6.90;99.90;;;;;;5010550;28;20038;-56
2022/01/17 08:23:08;;;;;;;17.98;4.18;;;6.90;99.90;;;;;;5011625;28;20029;-54
2022/01/17 08:25:34;;;;;;;19.80;3.80;;;6.90;99.90;;;;;;5010947;28;20071;-57
2022/01/17 08:28:00;;;;;;;19.50;4.13;;;6.90;99.90;;;;;;5010928;28;20463;-58
2022/01/17 08:30:25;;;;;;;15.05;4.35;;;6.90;99.90;;;;;;5011840;28;20025;-55
2022/01/17 08:32:51;;;;;;;24.52;5.13;;;7.00;99.90;;;;;;5011192;28;20507;-56
2022/01/17 08:35:19;;;;;;;21.75;4.00;;;7.00;99.90;;;;;;5010599;28;20067;-53
2022/01/17 08:37:44;;;;;;;24.40;5.22;;;7.00;99.90;;;;;;5011436;28;20258;-55
2022/01/17 08:40:11;;;;;;;20.65;4.25;;;7.00;99.90;;;;;;5010734;28;20416;-57
2022/01/17 08:42:37;;;;;;;25.80;4.68;;;7.00;99.90;;;;;;5010984;28;20043;-55
2022/01/17 08:45:09;;;;;;;22.92;5.57;;;7.10;99.90;;;;;;5011120;28;20026;-53
2022/01/17 08:47:34;;;;;;;23.38;5.28;;;7.10;99.90;;;;;;5011131;28;20037;-54
2022/01/17 08:50:00;;;;;;;24.48;5.43;;;7.10;99.90;;;;;;5011454;28;20030;-53
2022/01/17 08:52:26;;;;;;;23.25;5.32;;;7.10;99.90;;;;;;5009976;28;20073;-54
2022/01/17 08:54:53;;;;;;;17.83;4.43;;;7.10;99.90;;;;;;5011180;28;20504;-55
2022/01/17 08:57:19;;;;;;;21.77;4.95;;;7.20;99.90;;;;;;5010944;28;20021;-55
2022/01/17 08:59:46;;;;;;;25.52;6.30;;;7.20;99.90;;;;;;5011211;28;20030;-55
2022/01/17 09:02:12;;;;;;;19.70;4.55;;;7.30;99.90;;;;;;5010691;28;20076;-54
2022/01/17 09:04:41;;;;;;;19.80;5.35;;;7.30;99.90;;;;;;5010393;28;20037;-53
2022/01/17 09:07:11;;;;;;;23.88;5.10;;;7.30;99.90;;;;;;5011313;28;20105;-55
2022/01/17 09:09:38;;;;;;;9.77;3.45;;;7.30;99.90;;;;;;5011072;28;20029;-55
2022/01/17 09:12:05;;;;;;;14.20;3.30;;;7.30;99.90;;;;;;5009661;28;20030;-57
2022/01/17 09:14:31;;;;;;;17.33;3.00;;;7.30;99.90;;;;;;5010566;28;20164;-59
2022/01/17 09:16:56;;;;;;;14.55;2.72;;;7.30;99.90;;;;;;5010406;28;20101;-54
2022/01/17 09:19:22;;;;;;;14.45;3.22;;;7.30;99.90;;;;;;5010401;28;20109;-56
2022/01/17 09:21:47;;;;;;;10.00;3.10;;;7.30;99.90;;;;;;5010388;28;20033;-58
2022/01/17 09:24:13;;;;;;;10.25;2.55;;;7.30;99.90;;;;;;4992531;28;20021;-57
2022/01/17 09:26:39;;;;;;;10.63;2.55;;;7.30;99.90;;;;;;5010311;28;20030;-54
2022/01/17 09:29:05;;;;;;;12.23;2.97;;;7.30;99.90;;;;;;5010263;28;20049;-56
2022/01/17 09:31:30;;;;;;;9.65;1.65;;;7.30;99.90;;;;;;4992837;28;20403;-51
2022/01/17 09:33:56;;;;;;;8.63;2.45;;;7.20;99.90;;;;;;5010500;28;20108;-56
2022/01/17 09:36:25;;;;;;;11.43;2.42;;;7.20;99.90;;;;;;5010149;28;20040;-56
2022/01/17 09:38:51;;;;;;;6.47;1.80;;;7.10;99.90;;;;;;5010225;28;20032;-56
2022/01/17 09:41:17;;;;;;;9.80;1.92;;;7.10;99.90;;;;;;4992630;28;20030;-53
2022/01/17 09:43:43;;;;;;;7.38;2.08;;;7.10;99.90;;;;;;4992030;28;20030;-55
2022/01/17 09:46:09;;;;;;;10.25;1.92;;;7.10;99.90;;;;;;5009950;28;20034;-53
2022/01/17 09:48:37;;;;;;;7.85;1.65;;;7.10;99.90;;;;;;5010208;28;20049;-53
2022/01/17 09:51:20;;;;;;;8.18;1.80;;;7.00;99.90;;;;;;5009539;28;20026;-57
2022/01/17 09:53:50;;;;;;;11.90;2.20;;;7.00;99.90;;;;;;5008897;28;20045;-54
2022/01/17 09:56:18;;;;;;;5.30;1.60;;;7.10;99.90;;;;;;5009961;28;20030;-52
2022/01/17 09:58:45;;;;;;;9.40;2.72;;;7.00;99.90;;;;;;5009294;28;20633;-52
2022/01/17 10:01:11;;;;;;;7.80;2.08;;;7.00;99.90;;;;;;4991989;28;20443;-54
2022/01/17 10:03:37;;;;;;;11.27;1.85;;;7.00;99.90;;;;;;5009962;28;20030;-52
2022/01/17 10:06:03;;;;;;;8.73;2.05;;;7.00;99.90;;;;;;5008784;28;20034;-56
2022/01/17 10:08:28;;;;;;;13.15;2.22;;;7.10;99.90;;;;;;5009478;28;20107;-56
2022/01/17 10:11:00;;;;;;;8.38;1.83;;;7.10;99.90;;;;;;4992124;28;20022;-54
2022/01/17 10:13:29;;;;;;;6.15;2.08;;;7.20;99.90;;;;;;5009023;28;20041;-52
2022/01/17 10:16:06;;;;;;;8.63;2.03;;;7.20;99.90;;;;;;5009191;28;20025;-57
2022/01/17 10:18:37;;;;;;;12.80;2.65;;;7.10;99.90;;;;;;4991608;28;20573;-55
2022/01/17 10:21:16;;;;;;;10.80;1.80;;;7.10;99.90;;;;;;5009292;28;20040;-54
2022/01/17 10:35:24;;;;;;;6.25;1.58;;;7.30;99.90;;;;;;5007323;28;20037;-56
2022/01/17 10:38:14;;;;;;;9.07;2.10;;;7.20;99.90;;;;;;5009309;28;20034;-57
2022/01/17 10:40:53;;;;;;;9.10;1.80;;;7.10;99.90;;;;;;5009348;28;20033;-53
2022/01/17 10:43:35;;;;;;;10.82;2.33;;;7.00;99.90;;;;;;5008453;28;20395;-56
2022/01/17 10:46:08;;;;;;;9.98;2.85;;;6.90;99.90;;;;;;5009426;28;20088;-55
2022/01/17 10:48:45;;;;;;;9.27;2.40;;;6.70;99.90;;;;;;5008262;28;20112;-54
2022/01/17 10:51:13;;;;;;;6.68;1.80;;;6.50;99.90;;;;;;5009373;28;20026;-56
2022/01/17 10:53:40;;;;;;;10.88;2.17;;;6.30;99.90;;;;;;5007763;28;20025;-57
2022/01/17 10:56:08;;;;;;;9.05;2.45;;;6.20;99.90;;;;;;5008773;28;20583;-55
2022/01/17 10:58:37;;;;;;;13.80;2.95;;;6.10;99.90;;;;;;4990513;28;20025;-51
2022/01/17 11:01:05;;;;;;;8.23;2.13;;;6.10;99.90;;;;;;5008774;28;20080;-55
2022/01/17 11:03:34;;;;;;;10.43;2.40;;;6.00;99.90;;;;;;5008127;28;20033;-57
2022/01/17 11:06:12;;;;;;;12.43;2.72;;;6.00;99.90;;;;;;5008791;28;20113;-51
2022/01/17 11:08:40;;;;;;;10.25;2.58;;;6.10;99.90;;;;;;4990918;28;20563;-56
2022/01/17 11:11:08;;;;;;;10.98;3.13;;;6.10;99.90;;;;;;4990891;28;20514;-55
2022/01/17 11:13:38;;;;;;;12.65;3.08;;;6.10;99.90;;;;;;5008484;28;20026;-55
2022/01/17 11:16:11;;;;;;;18.20;4.20;;;6.10;99.90;;;;;;5008619;28;20041;-55
2022/01/17 11:18:37;;;;;;;17.75;3.55;;;6.10;99.90;;;;;;5008416;28;20763;-58
2022/01/17 11:21:10;;;;;;;13.32;3.35;;;6.10;99.90;;;;;;5008643;28;20484;-56
2022/01/17 11:23:41;;;;;;;12.23;3.47;;;6.10;99.90;;;;;;5007797;28;20026;-53
2022/01/17 11:26:07;;;;;;;14.32;2.95;;;6.10;99.90;;;;;;5008582;28;20107;-56
2022/01/17 11:28:34;;;;;;;12.20;2.97;;;6.10;99.90;;;;;;5008285;28;20026;-57
2022/01/17 11:31:07;;;;;;;9.52;3.58;;;6.10;99.90;;;;;;5008713;28;20079;-51
2022/01/17 11:33:34;;;;;;;12.07;3.67;;;6.10;99.90;;;;;;4990421;28;20116;-55
2022/01/17 11:36:00;;;;;;;13.30;3.53;;;6.00;99.90;;;;;;4992426;28;20036;-54
2022/01/17 11:38:35;;;;;;;11.75;3.60;;;6.00;99.90;;;;;;5012359;28;20033;-57
2022/01/17 11:41:02;;;;;;;16.40;3.45;;;6.10;99.90;;;;;;5012873;28;20398;-54
2022/01/17 11:43:35;;;;;;;14.35;3.10;;;6.10;99.90;;;;;;5011113;28;20045;-56
2022/01/17 11:46:18;;;;;;;18.75;4.72;;;6.10;99.90;;;;;;5011635;28;20064;-54
2022/01/17 11:48:59;;;;;;;15.05;3.35;;;6.10;99.90;;;;;;4993247;28;20431;-56
2022/01/17 11:51:40;;;;;;;18.15;3.67;;;6.10;99.90;;;;;;5011511;28;20033;-57
2022/01/17 11:54:14;;;;;;;12.15;3.47;;;6.10;99.90;;;;;;5011449;28;20164;-56
2022/01/17 11:56:43;;;;;;;22.50;4.18;;;6.10;99.90;;;;;;5011784;28;20025;-55
2022/01/17 11:59:32;;;;;;;16.55;3.70;;;6.10;99.90;;;;;;5011866;28;20022;-54
2022/01/17 12:02:16;;;;;;;15.55;4.03;;;6.10;99.90;;;;;;5011685;28;20041;-55
2022/01/17 12:05:06;;;;;;;12.25;3.20;;;6.10;99.90;;;;;;5011643;28;20022;-56
2022/01/17 12:07:52;;;;;;;13.93;3.05;;;6.10;99.90;;;;;;5011355;28;20018;-56
2022/01/17 12:10:27;;;;;;;18.63;4.90;;;6.10;99.90;;;;;;5012214;28;20017;-57
2022/01/17 12:13:15;;;;;;;24.67;4.90;;;6.20;99.90;;;;;;5011921;28;20392;-56
2022/01/17 12:16:19;;;;;;;19.52;4.32;;;6.20;99.90;;;;;;5011987;28;20029;-55
2022/01/17 12:19:07;;;;;;;14.27;4.18;;;6.20;99.90;;;;;;5011705;28;20053;-55
2022/01/17 12:21:58;;;;;;;17.55;4.47;;;6.20;99.90;;;;;;4993987;28;20389;-56
2022/01/17 12:24:41;;;;;;;20.38;4.18;;;6.10;99.90;;;;;;5011345;28;20025;-55
2022/01/17 12:27:10;;;;;;;14.73;4.70;;;6.10;99.90;;;;;;5011633;28;20496;-58
2022/01/17 12:29:36;;;;;;;19.63;4.53;;;6.10;99.90;;;;;;5011673;28;20030;-59
2022/01/17 12:32:02;;;;;;;22.17;3.67;;;6.00;99.90;;;;;;5011001;28;20032;-60
2022/01/17 12:34:28;;;;;;;27.77;3.63;;;6.00;99.90;;;;;;5011039;28;20125;-57
2022/01/17 12:36:58;;;;;;;13.27;3.90;;;5.90;99.90;;;;;;5009934;28;20496;-56
2022/01/17 12:39:28;;;;;;;19.90;4.22;;;5.90;99.90;;;;;;5011392;28;20076;-57
2022/01/17 12:42:00;;;;;;;18.33;4.15;;;5.90;99.90;;;;;;5009920;28;20030;-59
2022/01/17 12:44:28;;;;;;;14.05;3.80;;;6.00;99.90;;;;;;4993239;28;20030;-52
2022/01/17 12:47:00;;;;;;;18.02;3.90;;;6.00;99.90;;;;;;5009570;28;20060;-58
2022/01/17 12:49:27;;;;;;;13.43;3.40;;;6.00;99.90;;;;;;5010912;28;20045;-56
2022/01/17 12:51:55;;;;;;;16.38;3.45;;;6.00;99.90;;;;;;5010393;28;20069;-55
2022/01/17 12:54:23;;;;;;;24.05;4.05;;;6.00;99.90;;;;;;4992731;28;20622;-54
2022/01/17 12:56:52;;;;;;;21.08;4.05;;;6.00;99.90;;;;;;5009612;28;20084;-59
2022/01/17 12:59:18;;;;;;;15.50;3.90;;;6.00;99.90;;;;;;4991203;28;20030;-57
2022/01/17 13:01:48;;;;;;;20.95;4.28;;;6.00;99.90;;;;;;5010149;28;20038;-55
2022/01/17 13:04:16;;;;;;;20.17;4.47;;;6.00;99.90;;;;;;5010159;28;20307;-56
2022/01/17 13:06:44;;;;;;;13.85;4.38;;;6.00;99.90;;;;;;5010325;28;20105;-59
2022/01/17 13:09:15;;;;;;;17.52;4.80;;;6.00;99.90;;;;;;5010395;28;20037;-57
2022/01/17 13:11:43;;;;;;;22.73;4.53;;;6.00;99.90;;;;;;5010744;28;20033;-57
2022/01/17 13:14:13;;;;;;;15.98;3.85;;;6.00;99.90;;;;;;5009596;28;20026;-55
2022/01/17 13:16:40;;;;;;;14.02;4.68;;;6.10;99.90;;;;;;5010066;28;20050;-57
2022/01/17 13:19:09;;;;;;;12.93;3.80;;;6.00;99.90;;;;;;5010370;28;20026;-56
2022/01/17 13:21:38;;;;;;;26.73;5.97;;;6.00;99.90;;;;;;5006476;28;20035;-58